Time;durP1;ratioP1;P1;durP2;ratioP2;P2;SDS_P1;SDS_P2;PMS_P1;PMS_P2;Temp;Humidity;BMP_temperature;BMP_pressure;BME280_temperature;BME280_humidity;BME280_pressure;Samples;Min_cycle;Max_cycle;Signal;HPM_P1;HPM_P2
2023/11/14 00:01:27;;;;;;;9.80;2.27;;;11.20;91.80;;;12.35;66.88;96881.63;5011682;28;20049;-53
2023/11/14 00:03:54;;;;;;;13.47;4.30;;;11.10;93.10;;;12.41;66.81;96902.22;5011795;28;20045;-52
2023/11/14 00:06:22;;;;;;;7.32;2.80;;;11.20;93.20;;;12.38;66.15;96891.91;5011407;28;20494;-53
2023/11/14 00:08:50;;;;;;;5.20;1.90;;;11.20;91.00;;;12.21;65.14;96889.50;5011519;28;20042;-50
2023/11/14 00:11:18;;;;;;;7.72;2.97;;;11.10;87.30;;;12.46;65.71;96906.97;5010094;28;20049;-54
2023/11/14 00:13:46;;;;;;;8.35;2.80;;;11.20;90.10;;;12.52;65.38;96895.53;5009916;28;20538;-54
2023/11/14 00:16:13;;;;;;;9.00;2.80;;;11.30;89.20;;;12.50;64.28;96892.22;5011634;28;20038;-54
2023/11/14 00:18:41;;;;;;;5.57;1.67;;;11.30;87.50;;;12.45;64.37;96894.66;5010902;28;20439;-53
2023/11/14 00:21:10;;;;;;;5.82;1.85;;;11.30;85.50;;;12.65;64.50;96895.66;4993981;28;20053;-54
2023/11/14 00:23:37;;;;;;;11.07;2.70;;;11.30;87.80;;;12.65;64.15;96903.66;5010933;28;20049;-53
2023/11/14 00:26:05;;;;;;;6.43;3.25;;;11.30;87.20;;;12.68;64.02;96908.63;5010182;28;20491;-53
2023/11/14 00:28:33;;;;;;;8.98;3.05;;;11.20;88.00;;;12.71;64.32;96904.75;5010222;28;20053;-54
2023/11/14 00:31:00;;;;;;;9.05;2.20;;;11.30;89.10;;;12.68;63.84;96910.44;5011351;28;20041;-51
2023/11/14 00:33:28;;;;;;;9.77;3.60;;;11.20;88.40;;;12.70;64.02;96900.44;5009653;28;20049;-52
2023/11/14 00:35:56;;;;;;;8.57;3.05;;;11.20;89.20;;;12.70;63.99;96905.78;5011248;28;20514;-53
2023/11/14 00:38:23;;;;;;;7.17;1.87;;;11.20;90.00;;;12.67;64.10;96904.28;5009785;28;20058;-53
2023/11/14 00:40:51;;;;;;;8.17;3.07;;;11.10;90.40;;;12.51;64.05;96912.59;5003405;28;20057;-54
2023/11/14 00:43:20;;;;;;;6.18;2.35;;;11.00;88.80;;;12.56;64.62;96919.00;5009748;28;20057;-50
2023/11/14 00:45:47;;;;;;;10.45;2.08;;;11.00;91.10;;;12.59;64.64;96926.63;5009766;28;20052;-53
2023/11/14 00:48:15;;;;;;;5.03;2.28;;;11.00;91.50;;;12.53;64.99;96921.22;5010874;28;20518;-53
2023/11/14 00:50:43;;;;;;;11.57;3.72;;;11.00;90.70;;;12.57;64.49;96914.47;5009618;28;20042;-50
2023/11/14 00:53:11;;;;;;;9.57;3.00;;;11.00;91.50;;;12.44;64.74;96915.19;5009590;28;20057;-55
2023/11/14 00:55:39;;;;;;;5.67;2.17;;;11.00;91.90;;;12.40;64.90;96922.72;5009986;28;20057;-54
2023/11/14 00:58:07;;;;;;;9.23;2.70;;;10.90;92.10;;;12.40;64.83;96914.72;5010567;28;20044;-50
2023/11/14 01:00:34;;;;;;;8.25;2.45;;;10.90;92.70;;;12.47;64.56;96916.66;5010759;28;20499;-55
2023/11/14 01:03:02;;;;;;;5.93;2.03;;;10.90;93.00;;;12.41;64.75;96921.72;5009627;28;20057;-53
2023/11/14 01:05:30;;;;;;;6.70;2.23;;;10.90;92.30;;;12.45;64.97;96918.69;5010787;28;20050;-52
2023/11/14 01:07:57;;;;;;;8.07;2.47;;;10.90;92.40;;;12.46;64.83;96921.16;5009780;28;20415;-54
2023/11/14 01:10:25;;;;;;;7.47;3.03;;;10.90;92.60;;;12.47;64.81;96933.50;5009743;28;20065;-52
2023/11/14 01:12:53;;;;;;;7.37;2.67;;;10.90;92.60;;;12.45;64.70;96938.19;5009007;28;20172;-53
2023/11/14 01:15:20;;;;;;;9.57;2.47;;;10.90;92.50;;;12.33;65.01;96935.22;5009864;28;20201;-52
2023/11/14 01:17:48;;;;;;;7.13;2.57;;;10.80;92.40;;;12.30;64.83;96940.91;5009353;28;20046;-53
2023/11/14 01:20:16;;;;;;;5.67;2.47;;;10.80;92.30;;;12.30;64.76;96948.09;5009763;28;20064;-54
2023/11/14 01:22:45;;;;;;;6.20;2.30;;;10.90;91.40;;;12.37;64.43;96954.34;5010415;28;20053;-53
2023/11/14 01:25:13;;;;;;;4.93;1.80;;;10.80;90.70;;;12.29;64.46;96962.44;5009689;28;20076;-53
2023/11/14 01:27:42;;;;;;;9.17;2.90;;;10.90;89.30;;;12.34;64.68;96968.06;5009445;28;20053;-53
2023/11/14 01:30:10;;;;;;;5.20;2.10;;;10.80;90.90;;;12.35;64.44;96975.06;5010543;28;20069;-55
2023/11/14 01:32:37;;;;;;;7.10;2.37;;;10.80;91.00;;;12.33;64.62;96982.41;5008943;28;20133;-51
2023/11/14 01:35:05;;;;;;;7.90;2.40;;;10.80;91.60;;;12.30;64.73;96977.47;5009595;28;20038;-52
2023/11/14 01:37:33;;;;;;;7.47;2.38;;;10.80;91.40;;;12.27;64.70;96977.81;5009372;28;20057;-50
2023/11/14 01:40:01;;;;;;;8.37;2.57;;;10.80;91.40;;;12.26;64.57;96981.53;5012324;28;20504;-54
2023/11/14 01:42:29;;;;;;;7.97;2.40;;;10.80;92.70;;;12.28;64.91;96982.97;4995954;28;20045;-53
2023/11/14 01:44:56;;;;;;;7.75;2.25;;;10.80;92.40;;;12.31;64.84;96985.28;5012952;28;20034;-53
2023/11/14 01:47:24;;;;;;;9.53;2.07;;;10.80;92.10;;;12.18;65.00;96983.28;5014101;28;20077;-53
2023/11/14 01:49:53;;;;;;;9.97;2.70;;;10.80;92.50;;;12.26;64.97;96981.53;5012755;28;20500;-51
2023/11/14 01:52:21;;;;;;;9.47;2.43;;;10.80;92.80;;;12.25;65.07;96987.84;5012467;28;20045;-52
2023/11/14 01:54:49;;;;;;;7.55;2.13;;;10.80;91.30;;;12.30;64.96;96996.97;5012446;28;20046;-53
2023/11/14 01:57:17;;;;;;;8.43;2.37;;;10.90;91.70;;;12.27;64.92;97005.34;5012883;28;20046;-52
2023/11/14 01:59:46;;;;;;;12.73;3.10;;;10.80;91.50;;;12.25;65.14;97009.19;5012776;28;20568;-53
2023/11/14 02:02:15;;;;;;;7.37;2.83;;;10.80;91.70;;;12.28;64.93;97009.66;5012159;28;20060;-53
2023/11/14 02:04:45;;;;;;;11.00;2.67;;;10.80;92.20;;;12.22;65.10;97002.41;4993404;28;20061;-51
2023/11/14 02:07:13;;;;;;;5.20;2.00;;;10.80;91.70;;;12.21;64.94;96992.72;4996718;28;20073;-53
2023/11/14 02:09:41;;;;;;;7.67;3.33;;;10.80;91.90;;;12.24;64.80;96994.22;5013897;28;20491;-53
2023/11/14 02:12:09;;;;;;;6.47;1.93;;;10.80;92.20;;;12.29;64.95;96999.81;5012461;28;20471;-53
2023/11/14 02:14:37;;;;;;;8.07;2.20;;;10.80;92.10;;;12.26;64.78;96990.34;4996186;28;20041;-53
2023/11/14 02:17:04;;;;;;;12.23;3.70;;;10.80;91.40;;;12.19;65.13;96989.44;5012596;28;20052;-53
2023/11/14 02:19:32;;;;;;;7.90;1.73;;;10.80;92.10;;;12.25;65.14;96999.34;5012262;28;20061;-54
2023/11/14 02:22:00;;;;;;;7.93;2.13;;;10.80;92.40;;;12.30;65.08;97007.63;5012361;28;20050;-53
2023/11/14 02:24:29;;;;;;;19.80;4.50;;;10.90;92.10;;;12.28;64.84;97001.66;5012550;28;20499;-53
2023/11/14 02:26:58;;;;;;;11.57;2.73;;;10.80;91.60;;;12.30;64.54;96999.63;5011962;28;20049;-50
2023/11/14 02:29:26;;;;;;;10.93;2.80;;;10.90;91.70;;;12.31;64.62;97006.63;5013304;28;20042;-54
2023/11/14 02:31:53;;;;;;;8.87;2.43;;;10.90;91.20;;;12.32;64.56;96999.44;4995814;28;20415;-51
2023/11/14 02:34:21;;;;;;;10.93;2.53;;;10.90;90.20;;;12.33;64.53;97009.09;5012126;28;20470;-52
2023/11/14 02:36:49;;;;;;;7.67;3.20;;;10.90;90.30;;;12.35;64.39;97002.56;5012181;28;20499;-56
2023/11/14 02:39:16;;;;;;;8.47;2.40;;;10.90;90.20;;;12.29;64.21;97003.31;5013309;28;20052;-52
2023/11/14 02:41:44;;;;;;;6.13;2.20;;;10.90;89.80;;;12.30;64.32;97004.97;4995592;28;20507;-52
2023/11/14 02:44:13;;;;;;;8.63;2.23;;;10.90;90.10;;;12.29;64.32;97005.16;5012852;28;20056;-53
2023/11/14 02:46:40;;;;;;;12.73;3.90;;;10.90;89.80;;;12.33;64.20;96980.59;4995934;28;20542;-53
2023/11/14 02:49:43;;;;;;;9.43;2.33;;;10.90;89.70;;;12.31;64.17;96971.09;5011797;28;20050;-51
2023/11/14 02:52:11;;;;;;;9.40;2.27;;;10.90;88.90;;;12.27;64.05;96972.47;4992342;28;20054;-53
2023/11/14 02:54:39;;;;;;;8.33;2.40;;;10.90;89.30;;;12.24;64.14;96957.69;5011733;28;20053;-52
2023/11/14 02:57:09;;;;;;;10.18;3.30;;;10.90;88.10;;;12.23;64.01;96945.34;5012739;28;20069;-52
2023/11/14 02:59:37;;;;;;;8.63;2.28;;;10.90;89.10;;;12.28;64.14;96958.94;5011692;28;20050;-50
2023/11/14 03:02:04;;;;;;;9.50;2.20;;;11.00;88.60;;;12.26;64.11;96965.50;5011548;28;20050;-51
2023/11/14 03:04:33;;;;;;;11.70;2.73;;;10.90;89.30;;;12.07;64.24;96965.06;5013491;28;20057;-54
2023/11/14 03:07:00;;;;;;;11.30;3.80;;;10.90;88.40;;;12.08;64.25;96977.41;4993742;28;20323;-53
2023/11/14 03:09:28;;;;;;;11.65;3.20;;;10.90;88.10;;;12.08;64.10;96990.75;5013209;28;20046;-53
2023/11/14 03:11:56;;;;;;;10.80;3.10;;;10.90;88.00;;;12.09;64.56;96991.56;5011369;28;20072;-54
2023/11/14 03:14:23;;;;;;;6.95;3.08;;;10.90;89.10;;;12.02;64.35;96987.00;5011605;28;20053;-50
2023/11/14 03:16:51;;;;;;;10.03;3.20;;;10.90;87.80;;;12.07;64.41;96990.94;5011439;28;20046;-54
2023/11/14 03:19:19;;;;;;;7.40;2.80;;;10.90;87.40;;;11.87;64.65;96991.47;5011279;28;20053;-54
2023/11/14 03:21:48;;;;;;;7.50;2.27;;;10.80;87.70;;;12.07;64.39;97005.09;5010735;28;20057;-54
2023/11/14 03:24:15;;;;;;;8.97;2.70;;;10.90;87.90;;;12.21;64.21;97003.41;5012519;28;20042;-52
2023/11/14 03:26:43;;;;;;;13.47;2.97;;;10.90;88.30;;;12.14;64.18;97013.19;5012575;28;20046;-52
2023/11/14 03:29:10;;;;;;;10.00;2.30;;;10.90;87.60;;;12.18;63.83;97007.28;5010922;28;20053;-49
2023/11/14 03:31:39;;;;;;;8.75;2.45;;;10.90;88.50;;;12.29;63.64;97013.16;5010834;28;20507;-50
2023/11/14 03:34:07;;;;;;;6.40;2.42;;;11.00;88.60;;;12.35;63.82;97023.09;5011880;28;20523;-51
2023/11/14 03:36:35;;;;;;;6.13;2.20;;;10.90;88.80;;;12.13;64.27;97020.34;5012454;28;20045;-51
2023/11/14 03:39:03;;;;;;;9.75;2.25;;;10.90;88.70;;;12.31;63.81;97022.66;5010738;28;20467;-51
2023/11/14 03:41:31;;;;;;;8.57;1.97;;;11.00;88.20;;;12.23;64.11;97029.91;5011327;28;20056;-50
2023/11/14 03:43:59;;;;;;;9.07;3.63;;;10.90;88.90;;;12.35;63.98;97044.47;5011624;28;20046;-50
2023/11/14 03:46:26;;;;;;;6.90;2.35;;;10.90;88.80;;;12.20;64.08;97055.16;4994503;28;20062;-53
2023/11/14 03:48:54;;;;;;;7.20;2.22;;;10.90;88.90;;;12.23;64.27;97060.09;5010838;28;20058;-53
2023/11/14 03:51:21;;;;;;;5.27;2.47;;;11.00;88.80;;;12.29;64.00;97058.53;5010828;28;20042;-54
2023/11/14 03:53:49;;;;;;;9.33;2.73;;;10.90;88.30;;;12.33;64.46;97063.31;5010459;28;20485;-54
2023/11/14 03:56:17;;;;;;;8.23;2.30;;;11.00;88.70;;;12.41;63.98;97070.41;5011014;28;20057;-52
2023/11/14 03:58:45;;;;;;;10.03;3.10;;;11.00;89.20;;;12.45;63.97;97074.34;5010586;28;20046;-49
2023/11/14 04:01:12;;;;;;;7.93;2.33;;;11.00;88.60;;;12.46;63.70;97065.31;5010652;28;20064;-51
2023/11/14 04:03:40;;;;;;;9.47;4.30;;;11.00;88.30;;;12.42;63.59;97064.03;5009890;28;20058;-50
2023/11/14 04:06:11;;;;;;;8.77;2.37;;;11.00;88.30;;;12.32;64.13;97052.81;5011966;28;20510;-50
2023/11/14 04:08:39;;;;;;;6.30;1.90;;;11.00;88.90;;;12.24;64.02;97053.75;4993384;28;20053;-53
2023/11/14 04:11:06;;;;;;;9.63;2.33;;;11.00;88.70;;;12.17;64.44;97058.16;5011462;28;20045;-52
2023/11/14 04:13:36;;;;;;;6.60;2.53;;;11.00;88.30;;;12.17;64.36;97063.50;5011408;28;20411;-53
2023/11/14 04:16:05;;;;;;;3.93;1.77;;;11.10;88.50;;;12.12;64.61;97077.41;5011470;28;20415;-53
2023/11/14 04:18:38;;;;;;;7.03;1.95;;;11.00;87.90;;;12.11;64.50;97066.91;5010364;28;20046;-52
2023/11/14 04:21:06;;;;;;;7.93;2.58;;;11.00;88.30;;;12.07;64.61;97070.97;5011727;28;20408;-50
2023/11/14 04:23:34;;;;;;;4.63;2.17;;;11.00;88.30;;;11.99;64.54;97080.72;5010122;28;20518;-54
2023/11/14 04:26:03;;;;;;;3.53;1.60;;;11.00;87.50;;;11.83;64.90;97072.88;5010012;28;20050;-49
2023/11/14 04:28:31;;;;;;;7.37;2.40;;;11.10;86.20;;;11.95;64.30;97065.28;5011685;28;20057;-52
2023/11/14 04:30:59;;;;;;;7.95;2.58;;;11.10;86.20;;;12.07;64.21;97071.78;5010117;28;20072;-50
2023/11/14 04:33:27;;;;;;;6.32;1.83;;;11.00;86.40;;;12.16;64.09;97077.88;5011480;28;20369;-49
2023/11/14 04:35:54;;;;;;;7.97;2.00;;;11.00;86.80;;;12.12;63.69;97065.91;5011017;28;20042;-51
2023/11/14 04:38:23;;;;;;;7.90;2.42;;;11.00;85.30;;;12.26;63.16;97078.41;5010427;28;20050;-49
2023/11/14 04:40:53;;;;;;;7.32;2.45;;;11.00;85.20;;;12.28;63.35;97083.56;5010011;28;20495;-49
2023/11/14 04:43:21;;;;;;;6.50;2.17;;;11.00;86.00;;;12.09;63.39;97079.63;5010117;28;20503;-50
2023/11/14 04:45:49;;;;;;;7.00;2.85;;;11.00;85.60;;;12.24;63.16;97076.94;5009774;28;20056;-49
2023/11/14 04:48:16;;;;;;;5.90;2.20;;;11.00;86.00;;;12.16;63.00;97081.38;5009460;28;20050;-50
2023/11/14 04:50:44;;;;;;;6.20;2.10;;;11.00;85.10;;;12.18;62.52;97084.69;5010191;28;20049;-48
2023/11/14 04:53:12;;;;;;;10.10;2.17;;;11.00;82.90;;;12.33;62.59;97079.34;5010685;28;20038;-48
2023/11/14 04:55:39;;;;;;;8.23;2.53;;;11.00;84.40;;;12.17;62.32;97090.19;5010153;28;20045;-48
2023/11/14 04:58:08;;;;;;;6.85;2.30;;;11.00;83.90;;;12.26;62.40;97083.75;5011002;28;20054;-49
2023/11/14 05:00:35;;;;;;;6.17;1.90;;;11.00;84.30;;;12.25;62.19;97086.59;5011189;28;20038;-49
2023/11/14 05:03:05;;;;;;;7.03;2.23;;;11.00;83.40;;;12.36;62.00;97092.28;5010418;28;20514;-53
2023/11/14 05:05:34;;;;;;;6.40;2.50;;;11.00;83.90;;;12.37;61.85;97101.97;5008452;28;20431;-53
2023/11/14 05:08:02;;;;;;;10.55;3.03;;;11.00;84.20;;;12.43;61.93;97103.06;5010784;28;20068;-53
2023/11/14 05:10:30;;;;;;;11.20;3.17;;;11.00;84.30;;;12.41;61.65;97097.91;5010910;28;20395;-52
2023/11/14 05:12:59;;;;;;;5.27;2.23;;;11.00;84.10;;;12.37;61.89;97104.63;5010580;28;20054;-53
2023/11/14 05:15:27;;;;;;;4.93;2.30;;;11.00;83.80;;;12.24;61.85;97090.28;5014726;28;20038;-53
2023/11/14 05:17:56;;;;;;;8.02;2.85;;;11.00;83.10;;;12.31;61.48;97101.88;5013562;28;20038;-54
2023/11/14 05:20:24;;;;;;;6.45;1.80;;;11.00;83.30;;;12.29;61.77;97101.22;5013574;28;20049;-53
2023/11/14 05:22:52;;;;;;;5.40;2.33;;;11.00;83.10;;;12.39;61.58;97109.78;5014346;28;20042;-53
2023/11/14 05:25:20;;;;;;;10.90;2.47;;;11.00;83.60;;;12.30;61.76;97093.03;5014621;28;20443;-52
2023/11/14 05:27:49;;;;;;;7.67;2.30;;;11.00;83.40;;;12.40;61.71;97092.75;5014970;28;20046;-50
2023/11/14 05:30:17;;;;;;;6.30;1.83;;;11.00;83.40;;;12.40;61.41;97103.44;5014819;28;20059;-50
2023/11/14 05:32:48;;;;;;;5.37;2.07;;;11.00;82.80;;;12.39;61.26;97107.13;5014380;28;20042;-49
2023/11/14 05:35:16;;;;;;;8.88;3.13;;;11.00;83.30;;;12.32;61.29;97104.34;5013214;28;20050;-53
2023/11/14 05:37:44;;;;;;;11.80;2.50;;;11.00;82.20;;;12.25;61.08;97114.09;5014696;28;20045;-51
2023/11/14 05:40:12;;;;;;;8.07;2.15;;;10.90;81.60;;;12.04;61.40;97114.00;5014100;28;20494;-52
2023/11/14 05:42:40;;;;;;;7.73;2.07;;;10.90;81.30;;;12.15;61.14;97122.38;5013803;28;20046;-52
2023/11/14 05:45:09;;;;;;;7.45;1.95;;;10.90;81.60;;;12.13;61.11;97126.25;5014302;28;20054;-53
2023/11/14 05:47:37;;;;;;;6.80;2.47;;;10.90;81.10;;;12.06;60.33;97114.66;5014126;28;20415;-54
2023/11/14 05:50:06;;;;;;;6.05;1.70;;;10.90;79.80;;;12.15;61.01;97109.03;5012868;28;20052;-52
2023/11/14 05:52:34;;;;;;;6.77;2.40;;;10.90;81.20;;;12.29;60.76;97112.75;5013885;28;20067;-54
2023/11/14 05:55:01;;;;;;;12.80;2.50;;;11.00;81.80;;;12.25;60.58;97110.63;5013882;28;20443;-54
2023/11/14 05:57:29;;;;;;;5.25;1.58;;;10.90;80.30;;;12.12;60.79;97112.09;4997365;28;20046;-52
2023/11/14 05:59:56;;;;;;;5.82;1.75;;;10.90;80.50;;;12.18;60.45;97116.69;5014118;28;20041;-52
2023/11/14 06:02:24;;;;;;;6.60;2.17;;;10.90;80.50;;;12.14;60.12;97115.41;5013793;28;20514;-51
2023/11/14 06:04:52;;;;;;;6.25;2.30;;;10.80;79.50;;;12.16;60.20;97118.72;5014392;28;20042;-53
2023/11/14 06:07:20;;;;;;;6.00;1.43;;;10.80;79.70;;;12.21;60.02;97112.81;5012325;28;20057;-49
2023/11/14 06:09:47;;;;;;;14.37;4.57;;;10.90;79.80;;;12.31;60.01;97105.38;5013870;28;20046;-53
2023/11/14 06:12:15;;;;;;;6.70;2.47;;;11.00;80.40;;;12.40;59.93;97112.25;5013241;28;20417;-50
2023/11/14 06:14:42;;;;;;;5.35;2.65;;;11.00;80.40;;;12.45;59.65;97100.22;5013619;28;20038;-51
2023/11/14 06:17:10;;;;;;;8.68;1.90;;;11.00;79.20;;;12.46;59.48;97104.53;5013603;28;20058;-52
2023/11/14 06:19:38;;;;;;;5.23;1.70;;;11.00;79.70;;;12.49;59.70;97096.16;5013368;28;20041;-52
2023/11/14 06:22:05;;;;;;;5.90;1.63;;;11.00;79.70;;;12.51;59.51;97100.28;5013243;28;20411;-54
2023/11/14 06:24:33;;;;;;;3.17;1.65;;;11.00;80.00;;;12.53;59.42;97108.13;5012943;28;20046;-52
2023/11/14 06:27:01;;;;;;;3.38;1.50;;;11.00;79.50;;;12.54;59.16;97105.28;5013204;28;20495;-50
2023/11/14 06:29:28;;;;;;;6.97;1.80;;;10.90;80.10;;;12.56;59.02;97115.75;5012163;28;20052;-52
2023/11/14 06:31:56;;;;;;;9.27;2.97;;;10.90;79.80;;;12.58;59.24;97113.72;5011791;28;20491;-51
2023/11/14 06:34:24;;;;;;;9.17;2.00;;;10.90;79.50;;;12.57;59.05;97118.22;5005342;28;20053;-53
2023/11/14 06:36:51;;;;;;;7.13;2.20;;;10.90;79.20;;;12.51;58.93;97123.50;5013449;28;20064;-53
2023/11/14 06:39:19;;;;;;;4.35;2.25;;;10.90;79.60;;;12.54;59.16;97121.28;5012980;28;20053;-52
2023/11/14 06:41:49;;;;;;;11.77;3.27;;;10.90;79.90;;;12.55;59.06;97135.47;5013178;28;20046;-54
2023/11/14 06:44:20;;;;;;;5.57;1.77;;;10.90;79.90;;;12.53;58.79;97146.31;5013055;28;20050;-53
2023/11/14 06:46:47;;;;;;;9.07;3.10;;;10.80;79.70;;;12.51;58.67;97142.19;5013274;28;20419;-52
2023/11/14 06:49:15;;;;;;;5.70;1.70;;;10.80;79.20;;;12.49;58.80;97134.34;5011376;28;20060;-54
2023/11/14 06:51:43;;;;;;;6.00;1.70;;;10.80;79.40;;;12.50;58.75;97127.16;5013111;28;20470;-53
2023/11/14 06:54:11;;;;;;;4.13;1.92;;;10.90;77.50;;;12.50;58.79;97143.19;5012420;28;20049;-52
2023/11/14 06:56:38;;;;;;;9.30;2.70;;;11.00;78.80;;;12.56;58.66;97156.63;5013171;28;20419;-53
2023/11/14 06:59:07;;;;;;;3.83;1.97;;;11.00;78.30;;;12.56;58.52;97161.13;5012744;28;20041;-50
2023/11/14 07:01:36;;;;;;;7.03;1.85;;;11.00;77.80;;;12.59;58.49;97153.59;5012742;28;20137;-50
2023/11/14 07:04:04;;;;;;;4.78;1.60;;;11.10;78.30;;;12.61;58.36;97156.06;5011419;28;20042;-52
2023/11/14 07:06:31;;;;;;;6.22;2.53;;;11.10;77.70;;;12.58;58.39;97172.44;5012878;28;20048;-50
2023/11/14 07:08:59;;;;;;;5.50;1.70;;;11.10;78.00;;;12.56;58.49;97180.69;5012636;28;20048;-52
2023/11/14 07:11:28;;;;;;;3.65;1.38;;;11.10;78.00;;;12.54;58.36;97173.84;5012770;28;20046;-49
2023/11/14 07:13:56;;;;;;;3.50;1.80;;;11.10;77.50;;;12.53;58.31;97183.69;5012428;28;20048;-54
2023/11/14 07:16:23;;;;;;;5.38;2.00;;;11.10;78.50;;;12.54;58.34;97193.38;5012400;28;20041;-54
2023/11/14 07:18:51;;;;;;;4.77;1.80;;;11.10;78.50;;;12.53;58.24;97198.91;5012322;28;20398;-52
2023/11/14 07:21:19;;;;;;;6.10;2.83;;;11.10;77.50;;;12.55;58.12;97195.03;5012492;28;20053;-52
2023/11/14 07:23:47;;;;;;;8.85;2.28;;;11.10;77.20;;;12.56;58.49;97194.03;5012126;28;20037;-51
2023/11/14 07:26:14;;;;;;;3.03;1.40;;;11.10;78.10;;;12.56;58.50;97187.84;5012268;28;20052;-52
2023/11/14 07:28:45;;;;;;;4.03;1.30;;;11.10;78.00;;;12.57;58.11;97171.63;5012025;28;20508;-51
2023/11/14 07:31:13;;;;;;;4.63;1.80;;;11.10;77.70;;;12.58;58.24;97159.94;5012051;28;20041;-50
2023/11/14 07:33:41;;;;;;;6.25;1.48;;;11.20;77.10;;;12.46;58.22;97148.06;5011460;28;20053;-52
2023/11/14 07:36:08;;;;;;;5.40;2.10;;;11.10;77.60;;;12.46;58.13;97164.09;5011577;28;20054;-49
2023/11/14 07:38:36;;;;;;;5.47;1.70;;;11.00;77.00;;;12.54;58.14;97160.50;5011804;28;20057;-53
2023/11/14 07:41:07;;;;;;;5.60;2.05;;;11.10;77.70;;;12.55;58.16;97154.97;5010591;28;20060;-51
2023/11/14 07:43:34;;;;;;;3.38;1.60;;;11.10;77.60;;;12.54;57.80;97156.00;5006000;28;20598;-51
2023/11/14 07:46:03;;;;;;;6.37;1.80;;;11.10;77.20;;;12.45;57.58;97167.78;5012159;28;20046;-54
2023/11/14 07:48:31;;;;;;;4.47;1.60;;;11.10;75.50;;;12.52;57.48;97191.88;5003861;28;20069;-53
2023/11/14 07:50:59;;;;;;;7.70;1.75;;;11.10;75.80;;;12.42;57.68;97189.50;5012620;28;20038;-53
2023/11/14 07:53:29;;;;;;;3.90;1.63;;;11.00;76.40;;;12.48;57.88;97183.41;5010218;28;20056;-52
2023/11/14 07:55:56;;;;;;;4.82;1.58;;;11.10;76.20;;;12.57;57.69;97171.63;5011941;28;20042;-53
2023/11/14 07:58:25;;;;;;;7.67;2.10;;;11.20;76.20;;;12.61;57.33;97180.09;5011607;28;20046;-52
2023/11/14 08:00:53;;;;;;;7.77;1.77;;;11.30;74.00;;;12.57;56.99;97176.16;5011818;28;20045;-52
2023/11/14 08:03:20;;;;;;;5.18;1.52;;;11.30;74.70;;;12.47;56.63;97167.59;5011546;28;20309;-52
2023/11/14 08:05:48;;;;;;;5.50;1.33;;;11.30;73.10;;;12.57;56.83;97163.63;5009479;28;20053;-54
2023/11/14 08:08:19;;;;;;;4.20;1.42;;;11.40;72.90;;;12.64;56.71;97162.88;5010487;28;20050;-54
2023/11/14 08:10:47;;;;;;;3.97;1.80;;;11.40;73.00;;;12.64;56.57;97185.09;5011815;28;20046;-54
2023/11/14 08:13:16;;;;;;;4.60;1.50;;;11.40;72.40;;;12.63;56.33;97199.44;5010161;28;20064;-50
2023/11/14 08:15:44;;;;;;;4.07;1.33;;;11.40;72.50;;;12.67;56.26;97203.41;5011134;28;20042;-50
2023/11/14 08:18:13;;;;;;;5.72;1.48;;;11.40;72.70;;;12.68;56.33;97206.88;5010697;28;20046;-54
2023/11/14 08:20:40;;;;;;;4.68;1.77;;;11.40;73.30;;;12.66;56.20;97212.44;5011367;28;20077;-54
2023/11/14 08:23:08;;;;;;;8.23;1.70;;;11.40;72.80;;;12.66;56.23;97227.59;5011413;28;20050;-53
2023/11/14 08:25:35;;;;;;;3.15;1.40;;;11.40;72.40;;;12.69;55.59;97232.59;5010120;28;20045;-52
2023/11/14 08:28:04;;;;;;;4.30;1.90;;;11.50;70.10;;;12.72;55.83;97218.88;5010154;28;20042;-51
2023/11/14 08:30:32;;;;;;;4.23;1.73;;;11.40;71.40;;;12.71;55.81;97202.00;5010595;28;20464;-52
2023/11/14 08:32:59;;;;;;;3.35;1.48;;;11.40;72.70;;;12.85;55.71;97196.84;5009952;28;20038;-54
2023/11/14 08:35:27;;;;;;;7.30;1.92;;;11.50;72.80;;;12.89;55.62;97206.97;5010086;28;20439;-54
2023/11/14 08:37:55;;;;;;;4.65;1.60;;;11.50;72.60;;;12.93;55.75;97207.41;5011519;28;20391;-53
2023/11/14 08:40:31;;;;;;;3.92;1.73;;;11.50;72.20;;;12.92;55.37;97203.09;5011773;28;20046;-50
2023/11/14 08:43:00;;;;;;;4.43;2.00;;;11.50;71.10;;;13.01;55.57;97193.97;5002607;28;20063;-55
2023/11/14 08:45:29;;;;;;;3.80;2.47;;;11.60;72.10;;;13.06;55.71;97183.53;5004424;28;20061;-53
2023/11/14 08:47:57;;;;;;;8.55;2.42;;;11.70;72.00;;;13.09;55.40;97177.81;5005487;28;20068;-54
2023/11/14 08:50:25;;;;;;;5.38;2.38;;;11.70;72.60;;;13.10;55.50;97186.66;5005226;28;20058;-55
2023/11/14 08:52:52;;;;;;;4.45;1.80;;;11.70;72.30;;;13.16;55.39;97176.06;5006077;28;20506;-51
2023/11/14 08:55:21;;;;;;;3.92;2.20;;;11.80;71.60;;;13.16;55.16;97178.72;5004771;28;20050;-54
2023/11/14 08:57:48;;;;;;;7.72;2.10;;;11.80;71.70;;;13.18;55.25;97182.03;5000142;28;20054;-53
2023/11/14 09:00:18;;;;;;;4.80;1.77;;;11.80;72.00;;;13.22;55.46;97195.00;4999653;28;20045;-53
2023/11/14 09:02:46;;;;;;;5.68;1.77;;;11.80;72.60;;;13.29;55.39;97212.78;5002768;28;20635;-53
2023/11/14 09:05:13;;;;;;;2.22;1.48;;;11.90;71.70;;;13.24;54.89;97211.69;5001256;28;20072;-53
2023/11/14 09:07:41;;;;;;;7.03;1.20;;;11.80;71.30;;;13.28;55.31;97205.78;5002423;28;20050;-50
2023/11/14 09:10:11;;;;;;;6.65;2.17;;;11.90;72.60;;;13.25;55.37;97200.00;5002039;28;20058;-50
2023/11/14 09:12:39;;;;;;;3.53;1.23;;;11.90;72.00;;;13.31;55.55;97188.56;4998660;28;20057;-48
2023/11/14 09:15:09;;;;;;;3.92;2.17;;;11.90;72.60;;;13.33;55.36;97186.53;5009430;28;20069;-52
2023/11/14 09:17:37;;;;;;;3.08;1.73;;;11.90;72.60;;;13.38;55.69;97176.09;5010944;28;20057;-51
2023/11/14 09:20:11;;;;;;;5.88;1.52;;;12.00;73.00;;;13.43;55.80;97172.84;5010612;28;20049;-50
2023/11/14 09:22:39;;;;;;;4.03;1.63;;;12.00;73.30;;;13.42;55.72;97169.34;5008933;28;20046;-53
2023/11/14 09:25:07;;;;;;;3.40;1.15;;;12.00;73.50;;;13.41;55.77;97166.88;5008892;28;20496;-54
2023/11/14 09:27:35;;;;;;;3.30;1.20;;;12.00;73.80;;;13.35;55.64;97190.66;5010433;28;20061;-54
2023/11/14 09:30:03;;;;;;;4.85;1.42;;;11.90;73.20;;;13.26;55.86;97191.78;5009290;28;20072;-55
2023/11/14 09:32:30;;;;;;;5.00;1.58;;;11.90;73.10;;;13.28;55.88;97191.56;5010005;28;20117;-54
2023/11/14 09:34:58;;;;;;;4.03;1.75;;;11.90;73.40;;;13.17;55.84;97190.25;5010464;28;20046;-55
2023/11/14 09:37:26;;;;;;;6.15;2.40;;;11.80;72.90;;;13.20;55.80;97188.03;5008056;28;20046;-53
2023/11/14 09:39:54;;;;;;;4.43;1.65;;;11.80;73.00;;;13.12;55.72;97201.47;5007074;28;20045;-53
2023/11/14 09:42:22;;;;;;;4.15;1.92;;;11.80;71.90;;;13.07;55.84;97213.78;5003441;28;20049;-54
2023/11/14 09:44:50;;;;;;;3.53;1.27;;;11.70;72.90;;;13.12;55.80;97211.34;5007660;28;20049;-53
2023/11/14 09:47:18;;;;;;;1.67;1.23;;;11.80;73.40;;;13.08;55.66;97208.22;5007074;28;20057;-54
2023/11/14 09:49:46;;;;;;;5.53;2.22;;;11.80;72.90;;;13.11;55.73;97212.38;4991784;28;20042;-54
2023/11/14 09:52:13;;;;;;;7.10;1.70;;;11.80;72.00;;;13.13;55.58;97203.16;5006335;28;20519;-51
2023/11/14 09:54:41;;;;;;;4.65;1.55;;;11.80;72.70;;;13.23;55.69;97215.38;5023330;28;20049;-54
2023/11/14 09:57:12;;;;;;;3.25;1.95;;;11.90;73.10;;;13.17;55.41;97214.28;5019281;28;20427;-54
2023/11/14 09:59:43;;;;;;;6.53;1.38;;;11.90;72.40;;;13.16;55.47;97213.47;5024615;28;20042;-55
2023/11/14 10:02:14;;;;;;;3.95;1.38;;;11.80;72.50;;;13.12;55.45;97208.66;5011391;28;20513;-54
2023/11/14 10:04:42;;;;;;;7.68;1.65;;;11.80;72.20;;;13.10;55.29;97205.34;5012488;28;20042;-54
2023/11/14 10:07:15;;;;;;;2.45;1.30;;;11.80;71.50;;;12.98;55.44;97202.34;5013646;28;20054;-53
2023/11/14 10:09:50;;;;;;;1.52;0.95;;;11.70;72.00;;;13.00;55.64;97200.31;5013657;28;20562;-52
2023/11/14 10:12:37;;;;;;;2.35;1.45;;;11.70;72.90;;;12.87;55.65;97197.47;5011836;28;20050;-52
2023/11/14 10:15:07;;;;;;;2.60;1.42;;;11.70;72.30;;;12.93;55.95;97194.06;5008262;28;20427;-53
2023/11/14 10:17:47;;;;;;;1.13;1.00;;;11.70;73.30;;;12.93;55.75;97202.06;5013971;28;20053;-54
2023/11/14 10:20:17;;;;;;;2.95;1.10;;;11.70;72.50;;;13.03;55.77;97189.25;5014278;28;20089;-54
2023/11/14 10:23:03;;;;;;;3.90;1.40;;;11.80;73.00;;;13.08;55.54;97178.00;5006182;28;20041;-54